Time;durP1;ratioP1;P1;durP2;ratioP2;P2;SDS_P1;SDS_P2;PMS_P1;PMS_P2;Temp;Humidity;BMP_temperature;BMP_pressure;BME280_temperature;BME280_humidity;BME280_pressure;Samples;Min_cycle;Max_cycle;Signal;HPM_P1;HPM_P2
2024/04/20 00:03:21;;;;;;;1.10;0.85;;;;;;;;;;10769504;26;20080;-64
2024/04/20 00:08:16;;;;;;;2.65;1.00;;;;;;;;;;10771217;26;20000;-64
2024/04/20 00:13:10;;;;;;;1.15;1.00;;;;;;;;;;10779311;26;20000;-64
2024/04/20 00:18:04;;;;;;;0.80;0.80;;;;;;;;;;10779110;26;20497;-64
2024/04/20 00:22:59;;;;;;;0.85;0.85;;;;;;;;;;10769299;26;20020;-64
2024/04/20 00:27:53;;;;;;;1.25;0.90;;;;;;;;;;10765538;26;20436;-64
2024/04/20 00:32:47;;;;;;;0.80;0.80;;;;;;;;;;10768860;26;20446;-64
2024/04/20 00:37:42;;;;;;;3.80;1.00;;;;;;;;;;10769776;26;20011;-64
2024/04/20 00:42:35;;;;;;;0.85;0.80;;;;;;;;;;10768933;26;20016;-64
2024/04/20 00:47:29;;;;;;;2.38;0.80;;;;;;;;;;10772287;26;20004;-64
2024/04/20 00:52:23;;;;;;;1.35;0.70;;;;;;;;;;10759654;26;20004;-64
2024/04/20 00:57:20;;;;;;;0.70;0.70;;;;;;;;;;10767886;26;20077;-64
2024/04/20 01:02:14;;;;;;;1.70;0.88;;;;;;;;;;10763569;26;20000;-64
2024/04/20 01:07:08;;;;;;;2.90;0.90;;;;;;;;;;10758043;26;20004;-65
2024/04/20 01:12:03;;;;;;;3.15;1.23;;;;;;;;;;10766128;26;20004;-64
2024/04/20 01:16:56;;;;;;;1.67;1.10;;;;;;;;;;10751709;26;20000;-64
2024/04/20 01:21:52;;;;;;;1.17;0.90;;;;;;;;;;10765218;26;20440;-64
2024/04/20 01:26:46;;;;;;;0.80;0.80;;;;;;;;;;10765466;26;20081;-64
2024/04/20 01:31:40;;;;;;;3.45;1.35;;;;;;;;;;10766476;26;20796;-63
2024/04/20 01:36:35;;;;;;;1.55;1.30;;;;;;;;;;10747693;26;20023;-64
2024/04/20 01:41:29;;;;;;;1.63;1.15;;;;;;;;;;10767778;26;20451;-63
2024/04/20 01:46:24;;;;;;;2.55;1.13;;;;;;;;;;10761889;26;20004;-65
2024/04/20 01:51:19;;;;;;;3.55;1.00;;;;;;;;;;10766563;26;20012;-65
2024/04/20 01:56:13;;;;;;;2.35;2.10;;;;;;;;;;10751178;26;20451;-64
2024/04/20 02:01:07;;;;;;;4.40;1.77;;;;;;;;;;10766386;26;20022;-63
2024/04/20 02:06:01;;;;;;;4.15;1.65;;;;;;;;;;10756844;26;20000;-63
2024/04/20 02:10:56;;;;;;;1.52;1.00;;;;;;;;;;10759698;26;20004;-64
2024/04/20 02:15:50;;;;;;;2.20;1.40;;;;;;;;;;10754955;26;20015;-64
2024/04/20 02:20:44;;;;;;;1.27;1.10;;;;;;;;;;10752021;26;20493;-63
2024/04/20 02:25:39;;;;;;;1.23;1.13;;;;;;;;;;10734488;26;20000;-63
2024/04/20 02:30:34;;;;;;;2.58;1.00;;;;;;;;;;10763061;26;20043;-64
2024/04/20 02:35:28;;;;;;;4.22;1.35;;;;;;;;;;10765798;26;20005;-63
2024/04/20 02:40:22;;;;;;;2.95;1.52;;;;;;;;;;10761206;26;20004;-64
2024/04/20 02:45:18;;;;;;;1.40;1.30;;;;;;;;;;10754684;26;20017;-63
2024/04/20 02:50:12;;;;;;;1.30;1.20;;;;;;;;;;10760255;26;20019;-63
2024/04/20 02:55:07;;;;;;;2.45;1.55;;;;;;;;;;10743903;26;20001;-63
2024/04/20 03:00:01;;;;;;;3.97;1.23;;;;;;;;;;10758872;26;20019;-65
2024/04/20 03:04:55;;;;;;;2.10;1.45;;;;;;;;;;10762461;26;20004;-64
2024/04/20 03:09:49;;;;;;;3.58;2.70;;;;;;;;;;10763051;26;20012;-64
2024/04/20 03:14:43;;;;;;;2.22;1.63;;;;;;;;;;10762095;26;20008;-64
2024/04/20 03:19:37;;;;;;;3.35;2.20;;;;;;;;;;10758344;26;20044;-64
2024/04/20 03:24:32;;;;;;;3.60;1.73;;;;;;;;;;10761206;26;20000;-64
2024/04/20 03:29:26;;;;;;;2.00;1.35;;;;;;;;;;10764962;26;20347;-64
2024/04/20 03:34:20;;;;;;;2.65;1.52;;;;;;;;;;10768203;26;20015;-64
2024/04/20 03:39:17;;;;;;;3.60;1.70;;;;;;;;;;10711412;26;20019;-64
2024/04/20 03:44:15;;;;;;;2.38;1.40;;;;;;;;;;10768886;26;20004;-64
2024/04/20 03:49:10;;;;;;;1.40;1.30;;;;;;;;;;10761209;26;20005;-64
2024/04/20 03:54:05;;;;;;;1.90;1.23;;;;;;;;;;10765515;26;20015;-64
2024/04/20 03:58:59;;;;;;;1.33;1.23;;;;;;;;;;10764875;26;20019;-64
2024/04/20 04:03:54;;;;;;;1.60;1.50;;;;;;;;;;10769490;26;20077;-64
2024/04/20 04:08:49;;;;;;;5.32;1.52;;;;;;;;;;10755882;26;20019;-64
2024/04/20 04:13:43;;;;;;;2.03;1.63;;;;;;;;;;10775290;26;20004;-64
2024/04/20 04:18:38;;;;;;;1.35;1.25;;;;;;;;;;10764879;26;20001;-64
2024/04/20 04:23:32;;;;;;;2.58;1.67;;;;;;;;;;10768739;26;20004;-64
2024/04/20 04:28:27;;;;;;;2.00;1.42;;;;;;;;;;10766965;26;20015;-64
2024/04/20 04:33:21;;;;;;;1.73;1.40;;;;;;;;;;10765188;26;20036;-64
2024/04/20 04:38:16;;;;;;;2.22;1.52;;;;;;;;;;10767974;26;20004;-63
2024/04/20 04:43:10;;;;;;;1.80;1.70;;;;;;;;;;10766739;26;20016;-64
2024/04/20 04:48:05;;;;;;;2.80;1.42;;;;;;;;;;10767935;26;20015;-66
2024/04/20 04:53:02;;;;;;;3.25;1.70;;;;;;;;;;10759377;26;20004;-63
2024/04/20 04:57:56;;;;;;;1.60;1.50;;;;;;;;;;10763876;26;20082;-64
2024/04/20 05:02:50;;;;;;;1.67;1.40;;;;;;;;;;10768243;26;20077;-64
2024/04/20 05:07:45;;;;;;;5.15;2.00;;;;;;;;;;10771289;26;20008;-66
2024/04/20 05:12:39;;;;;;;3.72;1.85;;;;;;;;;;10766519;26;20012;-65
2024/04/20 05:17:37;;;;;;;5.00;1.73;;;;;;;;;;10771909;26;20089;-64
2024/04/20 05:22:31;;;;;;;4.00;2.25;;;;;;;;;;10775348;26;20001;-65
2024/04/20 05:27:26;;;;;;;3.53;1.42;;;;;;;;;;10767023;26;20004;-65
2024/04/20 05:32:19;;;;;;;6.05;2.78;;;;;;;;;;10764351;26;20015;-66
2024/04/20 05:37:13;;;;;;;2.03;1.83;;;;;;;;;;10777794;26;20019;-64
2024/04/20 05:42:08;;;;;;;6.10;2.03;;;;;;;;;;10777697;26;20442;-64
2024/04/20 05:47:02;;;;;;;1.73;1.60;;;;;;;;;;10813848;26;20003;-64
2024/04/20 05:51:57;;;;;;;21.35;16.55;;;;;;;;;;10818086;26;20008;-63
2024/04/20 05:56:52;;;;;;;16.42;13.57;;;;;;;;;;10819796;26;20011;-65
2024/04/20 06:01:46;;;;;;;4.03;2.90;;;;;;;;;;10817801;26;20008;-63
2024/04/20 06:06:41;;;;;;;5.60;2.63;;;;;;;;;;10785529;26;20035;-64
2024/04/20 06:11:36;;;;;;;4.15;2.30;;;;;;;;;;10802345;26;20092;-64
2024/04/20 06:16:32;;;;;;;2.92;2.33;;;;;;;;;;10773576;26;20019;-65
2024/04/20 06:21:27;;;;;;;4.35;2.60;;;;;;;;;;10771706;26;20008;-63
2024/04/20 06:26:21;;;;;;;3.30;2.50;;;;;;;;;;10772587;26;20004;-64
2024/04/20 06:31:16;;;;;;;6.43;3.15;;;;;;;;;;10767671;26;20004;-65
2024/04/20 06:36:11;;;;;;;4.85;3.08;;;;;;;;;;10769918;26;20102;-63
2024/04/20 06:41:05;;;;;;;5.43;2.88;;;;;;;;;;10764638;26;20004;-63
2024/04/20 06:46:00;;;;;;;3.13;2.72;;;;;;;;;;10764779;26;20000;-64
2024/04/20 06:50:53;;;;;;;4.80;3.10;;;;;;;;;;10766040;26;20039;-64
2024/04/20 06:55:59;;;;;;;5.97;3.38;;;;;;;;;;10766669;26;20012;-64
2024/04/20 07:00:54;;;;;;;2.95;2.58;;;;;;;;;;10763831;26;20036;-64
2024/04/20 07:06:11;;;;;;;3.55;2.63;;;;;;;;;;10763428;26;20593;-63
2024/04/20 07:11:07;;;;;;;14.93;3.07;;;;;;;;;;10753795;26;20000;-64
2024/04/20 07:16:02;;;;;;;5.30;3.05;;;;;;;;;;10765861;26;20040;-64
2024/04/20 07:20:57;;;;;;;5.22;2.67;;;;;;;;;;10762186;26;20015;-64
2024/04/20 07:26:06;;;;;;;8.10;3.60;;;;;;;;;;10764068;26;20027;-64
2024/04/20 07:31:00;;;;;;;4.60;3.05;;;;;;;;;;10761928;26;20004;-64
2024/04/20 07:35:55;;;;;;;9.75;2.70;;;;;;;;;;10761914;26;20008;-63
2024/04/20 07:40:50;;;;;;;5.50;3.40;;;;;;;;;;10763833;26;20340;-63
2024/04/20 07:45:44;;;;;;;7.57;2.90;;;;;;;;;;10761211;26;20004;-66
2024/04/20 07:50:39;;;;;;;3.70;2.47;;;;;;;;;;10761822;26;20004;-63
2024/04/20 07:55:33;;;;;;;4.78;2.55;;;;;;;;;;10765846;26;20010;-63
2024/04/20 08:00:27;;;;;;;4.35;2.92;;;;;;;;;;10761093;26;20019;-64
2024/04/20 08:05:20;;;;;;;4.15;2.78;;;;;;;;;;10765321;26;20332;-64
2024/04/20 08:10:15;;;;;;;2.80;1.88;;;;;;;;;;10760704;26;20037;-66
2024/04/20 08:15:09;;;;;;;7.10;2.50;;;;;;;;;;10765838;26;20011;-64
2024/04/20 08:20:04;;;;;;;4.50;2.35;;;;;;;;;;10767512;26;20340;-64
2024/04/20 08:24:59;;;;;;;2.83;2.45;;;;;;;;;;10769106;26;20340;-64
2024/04/20 08:29:53;;;;;;;6.00;2.50;;;;;;;;;;10768778;26;20054;-65
2024/04/20 08:34:48;;;;;;;8.25;2.85;;;;;;;;;;10752938;26;20079;-65
2024/04/20 08:39:42;;;;;;;3.78;2.42;;;;;;;;;;10764069;26;20004;-66
2024/04/20 08:44:36;;;;;;;7.13;2.40;;;;;;;;;;10766533;26;20401;-64
2024/04/20 08:49:30;;;;;;;4.80;2.53;;;;;;;;;;10769195;26;20020;-64
2024/04/20 08:54:24;;;;;;;6.05;2.85;;;;;;;;;;10769272;26;20004;-65
2024/04/20 08:59:19;;;;;;;6.30;3.28;;;;;;;;;;10768651;26;20004;-64
2024/04/20 09:04:13;;;;;;;3.60;2.20;;;;;;;;;;10768355;26;20000;-64
2024/04/20 09:09:08;;;;;;;14.73;3.50;;;;;;;;;;10765516;26;20004;-64
2024/04/20 09:14:02;;;;;;;5.07;2.50;;;;;;;;;;10774111;26;20423;-64
2024/04/20 09:19:02;;;;;;;9.93;2.63;;;;;;;;;;10766557;26;20016;-64
2024/04/20 09:24:08;;;;;;;5.03;2.90;;;;;;;;;;10751894;26;20000;-64
2024/04/20 09:29:02;;;;;;;6.35;2.58;;;;;;;;;;10751279;26;20004;-63
2024/04/20 09:33:58;;;;;;;3.20;2.72;;;;;;;;;;10723624;26;20004;-64
2024/04/20 09:38:52;;;;;;;6.40;3.88;;;;;;;;;;10771933;26;20074;-64
2024/04/20 09:43:49;;;;;;;5.38;2.88;;;;;;;;;;10765645;26;20016;-64
2024/04/20 09:48:44;;;;;;;10.95;3.28;;;;;;;;;;10768162;26;20018;-65
2024/04/20 09:53:40;;;;;;;8.48;4.30;;;;;;;;;;10767387;26;20377;-66
2024/04/20 09:58:35;;;;;;;4.88;4.03;;;;;;;;;;10771739;26;20014;-65
2024/04/20 10:03:33;;;;;;;7.30;3.92;;;;;;;;;;10718895;26;20071;-64
2024/04/20 10:08:27;;;;;;;4.43;3.47;;;;;;;;;;10766572;26;20005;-65
2024/04/20 10:13:22;;;;;;;9.63;4.10;;;;;;;;;;10771638;26;20000;-65
2024/04/20 10:18:16;;;;;;;4.40;3.65;;;;;;;;;;10764743;26;20005;-66
2024/04/20 10:23:18;;;;;;;6.00;4.00;;;;;;;;;;10763620;26;20001;-64
2024/04/20 10:28:23;;;;;;;7.72;4.05;;;;;;;;;;10758982;26;20547;-64
2024/04/20 10:33:26;;;;;;;6.68;4.70;;;;;;;;;;10762471;26;20009;-64
2024/04/20 10:38:26;;;;;;;6.22;4.32;;;;;;;;;;10759629;26;20452;-64
2024/04/20 10:43:19;;;;;;;6.93;5.25;;;;;;;;;;10757586;26;20040;-65
2024/04/20 10:48:14;;;;;;;5.93;4.53;;;;;;;;;;10762979;26;20015;-65
2024/04/20 10:53:08;;;;;;;8.48;6.05;;;;;;;;;;10763752;26;20000;-64
2024/04/20 10:58:01;;;;;;;5.53;4.25;;;;;;;;;;10761874;26;20004;-65
2024/04/20 11:02:56;;;;;;;5.00;4.35;;;;;;;;;;10763147;26;20057;-65
2024/04/20 11:08:18;;;;;;;7.57;5.10;;;;;;;;;;10765298;26;20019;-65
2024/04/20 11:13:19;;;;;;;5.93;4.57;;;;;;;;;;10759028;26;20082;-64
2024/04/20 11:18:17;;;;;;;5.07;4.57;;;;;;;;;;10750695;26;20019;-64
2024/04/20 11:23:12;;;;;;;5.47;4.97;;;;;;;;;;10764160;26;20004;-64
2024/04/20 11:28:09;;;;;;;7.05;5.15;;;;;;;;;;10761346;26;20336;-65
2024/04/20 11:33:05;;;;;;;4.68;4.20;;;;;;;;;;10757987;26;20441;-64
2024/04/20 11:38:02;;;;;;;4.32;3.92;;;;;;;;;;10761255;26;20005;-64
2024/04/20 11:43:00;;;;;;;4.10;3.80;;;;;;;;;;10761282;26;20036;-64
2024/04/20 11:47:54;;;;;;;5.43;3.57;;;;;;;;;;10774312;26;20662;-64
2024/04/20 11:58:06;;;;;;;4.20;2.80;;;;;;;;;;10768106;26;20012;-64
2024/04/20 12:03:00;;;;;;;3.67;2.78;;;;;;;;;;10765734;26;20003;-63
2024/04/20 12:07:54;;;;;;;10.77;2.60;;;;;;;;;;10787434;26;20016;-63
2024/04/20 12:12:49;;;;;;;5.63;3.30;;;;;;;;;;10799402;26;20004;-63
2024/04/20 12:17:43;;;;;;;3.90;3.13;;;;;;;;;;10799778;26;20042;-64
2024/04/20 12:22:38;;;;;;;3.72;3.25;;;;;;;;;;10816335;26;20008;-64
2024/04/20 12:27:32;;;;;;;3.45;3.15;;;;;;;;;;10827798;26;20051;-64
2024/04/20 12:32:26;;;;;;;3.38;3.10;;;;;;;;;;10811657;26;20015;-64
2024/04/20 12:37:21;;;;;;;3.00;2.58;;;;;;;;;;10800638;26;20000;-64
2024/04/20 12:42:16;;;;;;;4.70;2.20;;;;;;;;;;10796410;26;20081;-65
2024/04/20 12:47:09;;;;;;;7.63;3.17;;;;;;;;;;10814402;26;20003;-64
2024/04/20 12:52:04;;;;;;;3.05;2.03;;;;;;;;;;10782674;26;20003;-63
2024/04/20 12:56:58;;;;;;;2.42;2.03;;;;;;;;;;10804996;26;20008;-63
2024/04/20 13:01:53;;;;;;;2.35;2.08;;;;;;;;;;10782098;26;20019;-64
2024/04/20 13:06:51;;;;;;;4.13;2.00;;;;;;;;;;10787701;26;20019;-63
2024/04/20 13:11:46;;;;;;;2.00;1.90;;;;;;;;;;10797947;26;20022;-64
2024/04/20 13:16:39;;;;;;;8.38;2.30;;;;;;;;;;10795745;26;20072;-63
2024/04/20 13:21:35;;;;;;;1.83;1.55;;;;;;;;;;10806305;26;20080;-64
2024/04/20 13:26:32;;;;;;;1.90;1.80;;;;;;;;;;10792768;26;20015;-63
2024/04/20 13:31:43;;;;;;;5.10;3.00;;;;;;;;;;10792881;26;20016;-64
2024/04/20 13:36:36;;;;;;;2.00;1.90;;;;;;;;;;10798860;26;20413;-64
2024/04/20 13:41:32;;;;;;;3.40;2.33;;;;;;;;;;10787830;26;20005;-64
2024/04/20 13:46:26;;;;;;;2.85;2.60;;;;;;;;;;10800837;26;20004;-64
2024/04/20 13:51:24;;;;;;;2.10;2.00;;;;;;;;;;10772371;26;20004;-64
2024/04/20 13:56:21;;;;;;;2.63;2.25;;;;;;;;;;10768573;26;20012;-64
2024/04/20 14:01:15;;;;;;;10.52;1.25;;;;;;;;;;10821565;26;20403;-64
2024/04/20 14:06:07;;;;;;;29.63;3.17;;;;;;;;;;10771875;26;20014;-64
2024/04/20 14:11:02;;;;;;;9.38;1.30;;;;;;;;;;10777358;26;20000;-64
2024/04/20 14:16:01;;;;;;;7.75;1.45;;;;;;;;;;10821033;26;20015;-64
2024/04/20 14:20:55;;;;;;;;;;;;;;;;;;10803092;26;20004;-63
2024/04/20 14:26:00;;;;;;;3.58;1.00;;;;;;;;;;10789064;26;19926;-65
2024/04/20 14:31:01;;;;;;;1.23;0.90;;;;;;;;;;10776156;26;20004;-64
2024/04/20 14:35:55;;;;;;;1.77;1.00;;;;;;;;;;10796608;26;20029;-63
2024/04/20 14:40:54;;;;;;;1.73;0.98;;;;;;;;;;10794088;26;20008;-63
2024/04/20 14:45:47;;;;;;;0.93;0.88;;;;;;;;;;10796292;26;20589;-63
2024/04/20 14:50:40;;;;;;;4.03;2.53;;;;;;;;;;10796853;26;20335;-64
2024/04/20 14:55:35;;;;;;;4.22;1.33;;;;;;;;;;10756529;26;20016;-63
2024/04/20 15:00:31;;;;;;;2.97;1.00;;;;;;;;;;10763238;26;20098;-63
2024/04/20 15:05:24;;;;;;;0.88;0.85;;;;;;;;;;10764038;26;20089;-64
2024/04/20 15:10:19;;;;;;;1.98;0.95;;;;;;;;;;10779959;26;20018;-63
2024/04/20 15:15:13;;;;;;;2.67;1.17;;;;;;;;;;10768943;26;20077;-64
2024/04/20 15:20:08;;;;;;;1.48;1.30;;;;;;;;;;10762060;26;20004;-65
2024/04/20 15:25:03;;;;;;;1.52;1.23;;;;;;;;;;10775505;26;20015;-64
2024/04/20 15:29:57;;;;;;;1.50;1.40;;;;;;;;;;10788783;26;20015;-64
2024/04/20 15:34:51;;;;;;;1.45;1.27;;;;;;;;;;10776491;26;20082;-64
2024/04/20 15:39:45;;;;;;;2.03;1.40;;;;;;;;;;10776801;26;20016;-64
2024/04/20 15:44:42;;;;;;;2.72;1.20;;;;;;;;;;10777855;26;20004;-64
2024/04/20 15:49:37;;;;;;;1.75;1.13;;;;;;;;;;10780749;26;20000;-64
2024/04/20 15:54:31;;;;;;;4.03;1.98;;;;;;;;;;10772873;26;20077;-64
2024/04/20 15:59:27;;;;;;;7.40;1.45;;;;;;;;;;10779553;26;20019;-65
2024/04/20 16:04:20;;;;;;;7.03;1.10;;;;;;;;;;10775922;26;20004;-64
2024/04/20 16:09:16;;;;;;;1.20;1.10;;;;;;;;;;10774622;26;20012;-64
2024/04/20 16:14:22;;;;;;;1.17;1.08;;;;;;;;;;10775345;26;20011;-64
2024/04/20 16:19:16;;;;;;;1.67;1.08;;;;;;;;;;10767422;26;20004;-64
2024/04/20 16:24:14;;;;;;;0.95;0.95;;;;;;;;;;10763420;26;20005;-64
2024/04/20 16:29:09;;;;;;;2.00;1.45;;;;;;;;;;10767892;26;20058;-64
2024/04/20 16:34:04;;;;;;;3.03;2.33;;;;;;;;;;10772411;26;20015;-64
2024/04/20 16:38:58;;;;;;;1.70;1.60;;;;;;;;;;10764135;26;20338;-71
2024/04/20 16:43:52;;;;;;;1.88;1.33;;;;;;;;;;10765891;26;20003;-71
2024/04/20 16:48:46;;;;;;;1.73;1.60;;;;;;;;;;10772085;26;20004;-70
2024/04/20 16:53:45;;;;;;;1.73;1.60;;;;;;;;;;10769825;26;20011;-70
2024/04/20 16:58:40;;;;;;;1.35;1.20;;;;;;;;;;10768347;26;20015;-70
2024/04/20 17:03:35;;;;;;;1.10;1.10;;;;;;;;;;10769064;26;20000;-71
2024/04/20 17:08:32;;;;;;;2.03;1.40;;;;;;;;;;10765433;26;20077;-71
2024/04/20 17:13:26;;;;;;;3.45;1.45;;;;;;;;;;10774875;26;20320;-71
2024/04/20 17:18:21;;;;;;;2.88;1.60;;;;;;;;;;10768474;26;20015;-71
2024/04/20 17:23:15;;;;;;;10.65;1.30;;;;;;;;;;10766739;26;20046;-70
2024/04/20 17:28:08;;;;;;;1.25;1.15;;;;;;;;;;10756333;26;20519;-70
2024/04/20 17:33:04;;;;;;;2.35;1.20;;;;;;;;;;10755374;26;20095;-71
2024/04/20 17:38:02;;;;;;;4.53;1.95;;;;;;;;;;10756966;26;20004;-71
2024/04/20 17:42:56;;;;;;;2.67;2.00;;;;;;;;;;10763504;26;20077;-71
2024/04/20 17:47:51;;;;;;;1.88;1.77;;;;;;;;;;10760343;26;20008;-70
2024/04/20 17:52:45;;;;;;;3.17;2.40;;;;;;;;;;10761239;26;20047;-70
2024/04/20 17:57:39;;;;;;;4.53;2.15;;;;;;;;;;10765669;26;20012;-70
2024/04/20 18:02:34;;;;;;;1.50;1.40;;;;;;;;;;10763708;26;20441;-70
2024/04/20 18:07:29;;;;;;;1.75;1.60;;;;;;;;;;10765207;26;20678;-70
2024/04/20 18:12:24;;;;;;;5.22;1.25;;;;;;;;;;10755464;26;20019;-70
2024/04/20 18:17:29;;;;;;;3.58;1.65;;;;;;;;;;10762154;26;20766;-70
2024/04/20 18:22:23;;;;;;;5.30;4.65;;;;;;;;;;10768431;26;20081;-71
2024/04/20 18:27:17;;;;;;;8.00;4.25;;;;;;;;;;10762461;26;20000;-71
2024/04/20 18:32:12;;;;;;;2.15;1.95;;;;;;;;;;10760857;26;20454;-70
2024/04/20 18:37:06;;;;;;;3.35;1.80;;;;;;;;;;10763189;26;20000;-70
2024/04/20 18:42:00;;;;;;;1.85;1.65;;;;;;;;;;10762172;26;20024;-70
2024/04/20 18:46:54;;;;;;;2.95;2.22;;;;;;;;;;10762466;26;20104;-71
2024/04/20 18:51:50;;;;;;;2.85;1.98;;;;;;;;;;10766907;26;20004;-69
2024/04/20 18:56:44;;;;;;;4.78;2.72;;;;;;;;;;10763086;26;19999;-69
2024/04/20 19:01:37;;;;;;;3.17;2.40;;;;;;;;;;10745707;26;20008;-72
2024/04/20 19:06:32;;;;;;;3.42;2.17;;;;;;;;;;10766213;26;20004;-68
2024/04/20 19:11:26;;;;;;;3.88;3.47;;;;;;;;;;10758863;26;20009;-68
2024/04/20 19:16:20;;;;;;;3.83;2.15;;;;;;;;;;10748466;26;20078;-69
2024/04/20 19:21:14;;;;;;;2.03;1.77;;;;;;;;;;10762443;26;20464;-69
2024/04/20 19:26:15;;;;;;;2.08;1.95;;;;;;;;;;10778320;26;20077;-69
2024/04/20 19:31:10;;;;;;;1.83;1.60;;;;;;;;;;10781020;26;20012;-69
2024/04/20 19:36:05;;;;;;;5.82;2.08;;;;;;;;;;10762198;26;20012;-69
2024/04/20 19:41:09;;;;;;;4.13;2.22;;;;;;;;;;10779312;26;20004;-69
2024/04/20 19:46:03;;;;;;;2.03;1.80;;;;;;;;;;10782346;26;20004;-69
2024/04/20 19:50:58;;;;;;;4.07;2.10;;;;;;;;;;10780576;26;20004;-69
2024/04/20 19:55:52;;;;;;;3.67;1.92;;;;;;;;;;10781976;26;20016;-69
2024/04/20 20:00:46;;;;;;;2.78;1.70;;;;;;;;;;10771251;26;20633;-69
2024/04/20 20:05:40;;;;;;;1.52;1.42;;;;;;;;;;10758269;26;20033;-69
2024/04/20 20:10:35;;;;;;;3.28;1.58;;;;;;;;;;10758290;26;20005;-69
2024/04/20 20:15:30;;;;;;;1.75;1.60;;;;;;;;;;10752502;26;20423;-69
2024/04/20 20:20:24;;;;;;;1.80;1.70;;;;;;;;;;10748023;26;20004;-69
2024/04/20 20:25:18;;;;;;;2.25;1.70;;;;;;;;;;10749346;26;20094;-69
2024/04/20 20:30:12;;;;;;;2.92;1.52;;;;;;;;;;10768426;26;20387;-69
2024/04/20 20:35:07;;;;;;;2.33;1.80;;;;;;;;;;10770592;26;20000;-68
2024/04/20 20:40:01;;;;;;;3.92;2.17;;;;;;;;;;10767783;26;20110;-70
2024/04/20 20:44:54;;;;;;;2.17;1.92;;;;;;;;;;10760532;26;20458;-71
2024/04/20 20:49:48;;;;;;;1.77;1.67;;;;;;;;;;10804703;26;20040;-70
2024/04/20 20:54:43;;;;;;;2.95;1.50;;;;;;;;;;10780812;26;20016;-72
2024/04/20 20:59:38;;;;;;;1.70;1.60;;;;;;;;;;10784882;26;20012;-70
2024/04/20 21:04:32;;;;;;;1.83;1.70;;;;;;;;;;10777208;26;20130;-71
2024/04/20 21:09:26;;;;;;;4.32;3.92;;;;;;;;;;10781852;26;20004;-71
2024/04/20 21:14:20;;;;;;;3.28;2.97;;;;;;;;;;10790974;26;20017;-71
2024/04/20 21:19:14;;;;;;;5.05;2.40;;;;;;;;;;10808961;26;20041;-70
2024/04/20 21:24:09;;;;;;;3.13;2.83;;;;;;;;;;10758545;26;20074;-70
2024/04/20 21:29:03;;;;;;;2.50;2.30;;;;;;;;;;10770621;26;20019;-69
2024/04/20 21:33:59;;;;;;;2.53;1.83;;;;;;;;;;10752697;26;20004;-70
2024/04/20 21:38:54;;;;;;;1.70;1.60;;;;;;;;;;10765711;26;20078;-70
2024/04/20 21:43:48;;;;;;;1.55;1.45;;;;;;;;;;10767875;26;20357;-71
2024/04/20 21:48:43;;;;;;;1.50;1.40;;;;;;;;;;10776117;26;20432;-75
2024/04/20 21:53:37;;;;;;;1.30;1.20;;;;;;;;;;10764598;26;20016;-73
2024/04/20 21:58:32;;;;;;;4.10;1.60;;;;;;;;;;10764847;26;20004;-73
2024/04/20 22:03:27;;;;;;;1.55;1.27;;;;;;;;;;10764645;26;20018;-73
2024/04/20 22:08:21;;;;;;;2.17;1.98;;;;;;;;;;10764676;26;20008;-73
2024/04/20 22:13:16;;;;;;;1.40;1.30;;;;;;;;;;10779093;26;20085;-74
2024/04/20 22:18:11;;;;;;;2.00;1.50;;;;;;;;;;10762749;26;20004;-74
2024/04/20 22:23:06;;;;;;;1.55;1.48;;;;;;;;;;10759742;26;20005;-74
2024/04/20 22:28:01;;;;;;;1.20;1.20;;;;;;;;;;10763540;26;20018;-74
2024/04/20 22:32:56;;;;;;;1.67;1.58;;;;;;;;;;10761969;26;20015;-73
2024/04/20 22:37:49;;;;;;;1.33;1.30;;;;;;;;;;10763812;26;20077;-75
2024/04/20 22:42:43;;;;;;;1.33;1.23;;;;;;;;;;10763772;26;20004;-73
2024/04/20 22:47:38;;;;;;;1.30;1.20;;;;;;;;;;10763072;26;20430;-74
2024/04/20 22:52:32;;;;;;;1.40;1.30;;;;;;;;;;10760144;26;20004;-72
2024/04/20 22:57:26;;;;;;;1.40;1.40;;;;;;;;;;10767631;26;20332;-76
2024/04/20 23:02:20;;;;;;;1.20;1.20;;;;;;;;;;10783810;26;20019;-73
2024/04/20 23:07:15;;;;;;;1.20;1.20;;;;;;;;;;10778679;26;20022;-73
2024/04/20 23:12:10;;;;;;;3.38;1.45;;;;;;;;;;10796094;26;20080;-73
2024/04/20 23:17:05;;;;;;;5.32;3.17;;;;;;;;;;10782497;26;20008;-73
2024/04/20 23:21:59;;;;;;;4.10;1.95;;;;;;;;;;10784320;26;20003;-73
2024/04/20 23:26:54;;;;;;;2.08;1.77;;;;;;;;;;10783324;26;20004;-73
2024/04/20 23:31:48;;;;;;;1.58;1.48;;;;;;;;;;10775390;26;20328;-74
2024/04/20 23:36:42;;;;;;;1.50;1.40;;;;;;;;;;10764242;26;20014;-73
2024/04/20 23:41:37;;;;;;;1.55;1.42;;;;;;;;;;10759722;26;20004;-72
2024/04/20 23:46:30;;;;;;;1.65;1.55;;;;;;;;;;10749655;26;20016;-73
2024/04/20 23:51:23;;;;;;;2.38;2.17;;;;;;;;;;10769808;26;20015;-73
2024/04/20 23:56:18;;;;;;;3.58;1.63;;;;;;;;;;10771454;26;20004;-73
